createdAt,value
2018-05-11T00:00:33.749Z,99123.46
2018-05-11T00:03:02.127Z,99131.22
2018-05-11T00:05:30.508Z,99127.16
2018-05-11T00:07:58.880Z,99131.58
2018-05-11T00:10:27.302Z,99135.24
2018-05-11T00:12:55.669Z,99142.45
2018-05-11T00:15:24.043Z,99144.03
2018-05-11T00:17:52.428Z,99136.07
2018-05-11T00:20:20.808Z,99129.66
2018-05-11T00:22:49.214Z,99143.48
2018-05-11T00:25:17.595Z,99133.06
2018-05-11T00:27:45.977Z,99137.80
2018-05-11T00:30:14.352Z,99131.44
2018-05-11T00:32:42.720Z,99142.09
2018-05-11T00:35:11.108Z,99137.50
2018-05-11T00:37:39.473Z,99133.91
2018-05-11T00:40:08.356Z,99117.78
2018-05-11T00:42:36.742Z,99138.39
2018-05-11T00:45:07.641Z,99136.70
2018-05-11T00:47:36.027Z,99135.00
2018-05-11T00:50:06.811Z,99130.43
2018-05-11T00:52:36.986Z,99121.91
2018-05-11T00:55:16.380Z,99121.95
2018-05-11T00:57:44.758Z,99116.78
2018-05-11T01:00:13.145Z,99119.77
2018-05-11T01:02:41.518Z,99111.02
2018-05-11T01:05:09.913Z,99114.05
2018-05-11T01:07:38.279Z,99110.37
2018-05-11T01:10:09.135Z,99112.45
2018-05-11T01:12:38.003Z,99111.91
2018-05-11T01:15:09.454Z,99125.93
2018-05-11T01:17:37.819Z,99102.56
2018-05-11T01:20:06.477Z,99124.06
2018-05-11T01:22:34.892Z,99124.29
2018-05-11T01:25:03.292Z,99127.42
2018-05-11T01:27:31.683Z,99124.17
2018-05-11T01:30:00.078Z,99123.19
2018-05-11T01:32:28.110Z,99125.53
2018-05-11T01:34:56.489Z,99119.45
2018-05-11T01:37:24.867Z,99119.56
2018-05-11T01:39:53.307Z,99126.41
2018-05-11T01:42:21.822Z,99128.58
2018-05-11T01:44:50.185Z,99130.16
2018-05-11T01:47:18.554Z,99127.19
2018-05-11T01:49:46.923Z,99131.78
2018-05-11T01:52:16.082Z,99127.08
2018-05-11T01:54:44.222Z,99119.91
2018-05-11T01:57:12.614Z,99099.52
2018-05-11T01:59:40.971Z,99122.67
2018-05-11T02:02:09.364Z,99119.12
2018-05-11T02:04:37.767Z,99120.83
2018-05-11T02:07:05.981Z,99118.89
2018-05-11T02:09:34.349Z,99106.98
2018-05-11T02:12:02.745Z,99115.05
2018-05-11T02:14:31.109Z,99111.34
2018-05-11T02:16:59.711Z,99109.50
2018-05-11T02:19:28.075Z,99117.12
2018-05-11T02:21:56.443Z,99107.81
2018-05-11T02:24:24.816Z,99100.14
2018-05-11T02:26:53.592Z,99099.14
2018-05-11T02:29:22.106Z,99104.41
2018-05-11T02:31:51.451Z,99103.18
2018-05-11T02:34:20.057Z,99104.58
2018-05-11T02:36:48.439Z,99094.34
2018-05-11T02:39:16.816Z,99084.63
2018-05-11T02:41:44.973Z,99095.91
2018-05-11T02:44:13.345Z,99095.48
2018-05-11T02:46:41.727Z,99100.64
2018-05-11T02:49:10.099Z,99095.39
2018-05-11T02:51:38.461Z,99107.81
2018-05-11T02:54:06.845Z,99103.53
2018-05-11T02:56:34.977Z,99108.70
2018-05-11T02:59:03.361Z,99033.34
2018-05-11T03:01:31.838Z,99113.84
2018-05-11T03:04:01.171Z,99120.38
2018-05-11T03:06:29.494Z,99126.60
2018-05-11T03:08:57.864Z,99124.15
2018-05-11T03:11:26.247Z,99047.54
2018-05-11T03:13:54.629Z,99133.42
2018-05-11T03:16:23.008Z,99147.78
2018-05-11T03:18:51.386Z,99146.63
2018-05-11T03:21:19.753Z,99146.63
2018-05-11T03:23:48.151Z,99141.70
2018-05-11T03:26:16.517Z,99153.31
2018-05-11T03:28:45.534Z,99151.45
2018-05-11T03:31:14.831Z,99149.50
2018-05-11T03:33:43.209Z,99153.13
2018-05-11T03:36:11.603Z,99150.03
2018-05-11T03:38:39.970Z,99155.25
2018-05-11T03:41:08.878Z,99164.03
2018-05-11T03:43:37.252Z,99155.86
2018-05-11T03:46:05.636Z,99164.56
2018-05-11T03:48:34.005Z,99179.78
2018-05-11T03:51:02.376Z,99164.66
2018-05-11T03:53:30.737Z,99175.63
2018-05-11T03:55:59.141Z,99176.69
2018-05-11T03:58:27.522Z,99177.92
2018-05-11T04:00:55.881Z,99176.32
2018-05-11T04:03:35.260Z,99184.86
2018-05-11T04:06:04.777Z,99180.34
2018-05-11T04:08:51.344Z,99173.86
2018-05-11T04:11:20.561Z,99177.48
2018-05-11T04:13:48.932Z,99176.95
2018-05-11T04:16:17.317Z,99183.69
2018-05-11T04:18:45.693Z,99194.77
2018-05-11T04:21:14.151Z,99198.88
2018-05-11T04:23:42.548Z,99201.17
2018-05-11T04:26:10.909Z,99208.41
2018-05-11T04:28:39.278Z,99214.13
2018-05-11T04:31:07.646Z,99214.58
2018-05-11T04:33:36.038Z,99219.77
2018-05-11T04:36:04.402Z,99224.32
2018-05-11T04:38:32.778Z,99227.78
2018-05-11T04:41:01.154Z,99235.66
2018-05-11T04:43:29.553Z,99232.63
2018-05-11T04:45:58.645Z,99245.52
2018-05-11T04:48:27.033Z,99254.17
2018-05-11T04:50:55.407Z,99263.56
2018-05-11T04:53:23.790Z,99266.39
2018-05-11T04:55:51.944Z,99259.21
2018-05-11T04:58:20.317Z,99257.08
2018-05-11T05:00:48.685Z,99263.22
2018-05-11T05:03:17.137Z,99269.89
2018-05-11T05:05:45.628Z,99276.61
2018-05-11T05:08:13.997Z,99276.34
2018-05-11T05:10:43.101Z,99282.55
2018-05-11T05:13:11.475Z,99290.15
2018-05-11T05:15:39.853Z,99293.73
2018-05-11T05:18:08.863Z,99291.57
2018-05-11T05:20:37.227Z,99294.86
2018-05-11T05:23:05.860Z,99292.97
2018-05-11T05:25:34.236Z,99309.73
2018-05-11T05:28:03.634Z,99303.87
2018-05-11T05:30:32.017Z,99319.94
2018-05-11T05:33:00.484Z,99310.09
2018-05-11T05:35:28.985Z,99317.70
2018-05-11T05:37:57.357Z,99324.36
2018-05-11T05:40:25.741Z,99331.58
2018-05-11T05:42:53.991Z,99335.77
2018-05-11T05:45:22.365Z,99340.00
2018-05-11T05:47:50.738Z,99342.09
2018-05-11T05:50:20.322Z,99347.23
2018-05-11T05:52:49.541Z,99354.20
2018-05-11T05:55:20.458Z,99349.31
2018-05-11T05:57:49.471Z,99357.38
2018-05-11T06:00:19.368Z,99239.73
2018-05-11T06:02:48.018Z,99353.51
2018-05-11T06:05:18.418Z,99356.17
2018-05-11T06:07:46.793Z,99351.73
2018-05-11T06:10:15.197Z,99359.75
2018-05-11T06:12:43.602Z,99369.15
2018-05-11T06:15:12.028Z,99198.23
2018-05-11T06:17:40.457Z,99362.47
2018-05-11T06:20:09.024Z,99366.45
2018-05-11T06:22:37.396Z,99369.80
2018-05-11T06:25:05.819Z,99364.41
2018-05-11T06:27:34.216Z,99356.24
2018-05-11T06:30:02.604Z,99360.67
2018-05-11T06:32:30.992Z,99357.94
2018-05-11T06:35:00.281Z,99356.70
2018-05-11T06:37:28.680Z,99355.86
2018-05-11T06:39:57.063Z,99307.81
2018-05-11T06:42:25.449Z,99355.23
2018-05-11T06:44:53.817Z,99363.47
2018-05-11T06:47:22.181Z,99360.47
2018-05-11T06:49:50.550Z,99357.97
2018-05-11T06:52:18.930Z,99357.77
2018-05-11T06:54:47.305Z,99354.02
2018-05-11T06:57:15.691Z,99366.16
2018-05-11T06:59:44.163Z,99357.80
2018-05-11T07:02:12.543Z,99363.17
2018-05-11T07:04:40.940Z,99322.20
2018-05-11T07:07:09.323Z,99355.86
2018-05-11T07:09:38.691Z,99367.73
2018-05-11T07:12:07.069Z,99365.72
2018-05-11T07:14:35.455Z,99363.12
2018-05-11T07:17:04.349Z,99359.45
2018-05-11T07:19:32.768Z,99330.16
2018-05-11T07:22:01.369Z,99372.38
2018-05-11T07:24:29.775Z,99357.12
2018-05-11T07:26:58.195Z,99378.70
2018-05-11T07:29:26.568Z,99375.97
2018-05-11T07:31:54.979Z,99375.67
2018-05-11T07:34:23.365Z,99378.66
2018-05-11T07:36:51.761Z,99382.58
2018-05-11T07:39:20.138Z,99384.55
2018-05-11T07:41:48.513Z,99376.07
2018-05-11T07:44:16.897Z,99376.45
2018-05-11T07:46:45.280Z,99386.17
2018-05-11T07:49:13.658Z,99384.42
2018-05-11T07:51:42.085Z,99387.45
2018-05-11T07:54:10.663Z,99382.28
2018-05-11T07:56:39.113Z,99397.19
2018-05-11T07:59:07.501Z,99388.37
2018-05-11T08:01:35.937Z,99386.48
2018-05-11T08:04:04.404Z,99383.14
2018-05-11T08:06:32.909Z,99409.05
2018-05-11T08:09:01.285Z,99399.37
2018-05-11T08:11:30.553Z,99406.87
2018-05-11T08:13:58.930Z,99414.08
2018-05-11T08:16:28.090Z,99403.68
2018-05-11T08:18:56.325Z,99403.19
2018-05-11T08:21:24.798Z,99401.89
2018-05-11T08:23:54.014Z,99408.06
2018-05-11T08:26:22.413Z,99401.20
2018-05-11T08:28:50.777Z,99408.81
2018-05-11T08:31:19.222Z,99416.97
2018-05-11T08:33:47.595Z,99415.52
2018-05-11T08:36:15.957Z,99421.93
2018-05-11T08:38:44.327Z,99421.69
2018-05-11T08:41:12.696Z,99403.38
2018-05-11T08:43:41.059Z,99426.30
2018-05-11T08:46:09.435Z,99424.72
2018-05-11T08:48:37.802Z,99429.61
2018-05-11T08:51:06.169Z,99421.80
2018-05-11T08:53:34.552Z,99415.67
2018-05-11T08:56:02.743Z,99417.83
2018-05-11T08:58:31.118Z,99417.95
2018-05-11T09:00:59.502Z,99418.01
2018-05-11T09:03:27.988Z,99416.36
2018-05-11T09:05:56.378Z,99415.25
2018-05-11T09:08:24.878Z,99417.07
2018-05-11T09:10:53.365Z,99409.36
2018-05-11T09:13:21.744Z,99407.53
2018-05-11T09:15:50.130Z,99393.57
2018-05-11T09:18:18.514Z,99414.50
2018-05-11T09:20:46.877Z,99406.69
2018-05-11T09:23:15.258Z,99418.58
2018-05-11T09:25:43.659Z,99414.91
2018-05-11T09:28:12.809Z,99420.09
2018-05-11T09:30:41.378Z,99410.37
2018-05-11T09:33:09.765Z,99414.83
2018-05-11T09:35:38.573Z,99411.48
2018-05-11T09:38:07.007Z,99411.11
2018-05-11T09:40:35.398Z,99406.20
2018-05-11T09:43:03.780Z,99406.91
2018-05-11T09:45:32.157Z,99416.27
2018-05-11T09:48:00.539Z,99416.51
2018-05-11T09:50:28.913Z,99408.84
2018-05-11T09:52:57.121Z,99395.44
2018-05-11T09:55:25.538Z,99403.55
2018-05-11T09:57:54.758Z,99404.78
2018-05-11T10:00:26.087Z,99411.70
2018-05-11T10:02:54.564Z,99403.37
2018-05-11T10:05:23.079Z,99400.95
2018-05-11T10:07:51.822Z,99398.02
2018-05-11T10:10:21.304Z,99408.85
2018-05-11T10:12:49.703Z,99404.91
2018-05-11T10:15:22.964Z,99405.14
2018-05-11T10:17:51.375Z,99399.06
2018-05-11T10:20:21.714Z,99346.34
2018-05-11T10:22:50.098Z,99392.38
2018-05-11T10:25:19.621Z,99393.74
2018-05-11T10:27:48.089Z,99398.66
2018-05-11T10:30:16.488Z,99391.97
2018-05-11T10:32:44.877Z,99399.08
2018-05-11T10:35:15.818Z,99404.36
2018-05-11T10:37:44.323Z,99400.77
2018-05-11T10:40:15.754Z,99391.95
2018-05-11T10:42:45.661Z,99398.21
2018-05-11T10:45:14.062Z,99229.33
2018-05-11T10:47:42.451Z,99397.97
2018-05-11T10:50:10.847Z,99405.03
2018-05-11T10:52:39.225Z,99392.83
2018-05-11T10:55:07.316Z,99399.33
2018-05-11T10:57:35.765Z,99402.79
2018-05-11T11:00:03.579Z,99395.56
2018-05-11T11:02:31.958Z,99392.84
2018-05-11T11:05:00.349Z,99386.98
2018-05-11T11:07:28.722Z,99386.55
2018-05-11T11:09:57.115Z,99382.59
2018-05-11T11:12:25.492Z,99378.08
2018-05-11T11:14:53.902Z,99368.33
2018-05-11T11:17:22.067Z,99375.98
2018-05-11T11:19:50.478Z,99366.23
2018-05-11T11:22:18.856Z,99366.61
2018-05-11T11:24:47.229Z,99360.64
2018-05-11T11:27:15.617Z,99365.83
2018-05-11T11:29:44.033Z,99364.97
2018-05-11T11:32:12.421Z,99358.72
2018-05-11T11:34:40.807Z,99359.46
2018-05-11T11:37:09.376Z,99354.05
2018-05-11T11:39:37.768Z,99357.31
2018-05-11T11:42:06.234Z,99345.68
2018-05-11T11:44:34.737Z,99356.62
2018-05-11T11:47:03.132Z,99344.47
2018-05-11T11:49:31.516Z,99352.52
2018-05-11T11:51:59.892Z,99346.89
2018-05-11T11:54:28.269Z,99338.97
2018-05-11T11:56:57.262Z,99344.98
2018-05-11T11:59:25.660Z,99342.62
2018-05-11T12:01:54.066Z,99336.52
2018-05-11T12:04:22.608Z,99334.09
2018-05-11T12:06:50.751Z,99333.97
2018-05-11T12:09:19.129Z,99331.92
2018-05-11T12:11:47.517Z,99332.09
2018-05-11T12:14:16.113Z,99330.75
2018-05-11T12:16:44.503Z,99315.48
2018-05-11T12:19:12.887Z,99318.52
2018-05-11T12:21:41.281Z,99318.52
2018-05-11T12:24:09.694Z,99307.52
2018-05-11T12:26:38.072Z,99295.72
2018-05-11T12:29:06.473Z,99303.84
2018-05-11T12:31:34.851Z,99302.66
2018-05-11T12:34:03.223Z,99297.56
2018-05-11T12:36:31.619Z,99285.07
2018-05-11T12:39:00.004Z,99290.86
2018-05-11T12:41:28.442Z,99264.71
2018-05-11T12:43:56.809Z,99283.42
2018-05-11T12:46:25.357Z,99283.21
2018-05-11T12:48:53.752Z,99276.50
2018-05-11T12:51:22.209Z,99269.87
2018-05-11T12:53:50.739Z,99252.31
2018-05-11T12:56:19.112Z,99258.98
2018-05-11T12:58:47.506Z,99262.52
2018-05-11T13:01:15.872Z,99262.27
2018-05-11T13:03:44.269Z,99260.25
2018-05-11T13:06:12.679Z,99265.69
2018-05-11T13:08:41.050Z,99258.60
2018-05-11T13:11:09.457Z,99250.20
2018-05-11T13:13:37.893Z,99254.84
2018-05-11T13:16:06.272Z,99249.78
2018-05-11T13:18:34.708Z,99251.03
2018-05-11T13:21:03.163Z,99238.98
2018-05-11T13:23:31.527Z,99239.98
2018-05-11T13:25:59.928Z,99231.84
2018-05-11T13:28:28.304Z,99236.38
2018-05-11T13:30:56.678Z,99217.16
2018-05-11T13:33:25.060Z,99226.91
2018-05-11T13:35:53.484Z,99223.23
2018-05-11T13:38:21.854Z,99217.32
2018-05-11T13:40:50.225Z,99217.07
2018-05-11T13:43:18.409Z,99210.56
2018-05-11T13:45:46.780Z,99207.93
2018-05-11T13:48:15.272Z,99210.56
2018-05-11T13:50:43.754Z,99203.26
2018-05-11T13:53:12.126Z,99198.98
2018-05-11T13:55:40.528Z,99194.92
2018-05-11T13:58:08.911Z,99190.06
2018-05-11T14:00:37.347Z,99189.92
2018-05-11T14:03:05.724Z,99194.85
2018-05-11T14:05:34.104Z,99189.93
2018-05-11T14:08:02.519Z,99189.05
2018-05-11T14:10:30.889Z,99185.94
2018-05-11T14:12:59.260Z,99184.74
2018-05-11T14:15:27.880Z,99029.23
2018-05-11T14:17:56.261Z,99182.05
2018-05-11T14:20:24.635Z,99177.09
2018-05-11T14:22:53.003Z,99183.80
2018-05-11T14:25:21.581Z,99134.44
2018-05-11T14:27:49.973Z,99171.55
2018-05-11T14:30:18.548Z,99177.55
2018-05-11T14:32:47.021Z,99169.17
2018-05-11T14:35:15.415Z,99171.63
2018-05-11T14:37:43.826Z,99182.39
2018-05-11T14:40:12.286Z,99180.28
2018-05-11T14:42:40.692Z,99177.19
2018-05-11T14:45:09.088Z,99171.67
2018-05-11T14:47:37.466Z,99176.33
2018-05-11T14:50:05.873Z,99174.03
2018-05-11T14:52:34.293Z,99172.50
2018-05-11T14:55:02.441Z,99166.01
2018-05-11T14:57:30.829Z,99167.41
2018-05-11T14:59:59.199Z,99148.27
2018-05-11T15:02:27.565Z,99159.77
2018-05-11T15:04:55.943Z,99147.44
2018-05-11T15:07:24.328Z,99158.17
2018-05-11T15:09:52.725Z,99155.03
2018-05-11T15:12:21.092Z,99156.73
2018-05-11T15:14:49.465Z,99163.47
2018-05-11T15:17:17.680Z,99152.00
2018-05-11T15:19:46.894Z,99153.25
2018-05-11T15:22:16.723Z,99145.88
2018-05-11T15:24:45.105Z,99159.09
2018-05-11T15:27:13.480Z,99160.72
2018-05-11T15:29:41.866Z,99148.95
2018-05-11T15:32:10.439Z,99155.25
2018-05-11T15:34:38.523Z,99159.38
2018-05-11T15:37:06.894Z,99154.70
2018-05-11T15:39:35.314Z,99153.42
2018-05-11T15:42:03.723Z,99149.09
2018-05-11T15:44:32.128Z,99150.77
2018-05-11T15:47:00.522Z,99157.84
2018-05-11T15:49:28.890Z,99147.13
2018-05-11T15:51:57.275Z,99146.77
2018-05-11T15:54:25.653Z,99145.03
2018-05-11T15:56:54.054Z,99143.98
2018-05-11T15:59:22.434Z,99144.75
2018-05-11T16:01:50.798Z,99147.08
2018-05-11T16:04:19.218Z,99142.39
2018-05-11T16:06:47.592Z,99143.16
2018-05-11T16:09:16.016Z,99145.28
2018-05-11T16:11:45.589Z,99145.60
2018-05-11T16:14:14.001Z,99147.38
2018-05-11T16:16:42.378Z,99144.54
2018-05-11T16:19:11.717Z,99139.30
2018-05-11T16:21:40.107Z,99137.09
2018-05-11T16:24:08.474Z,99131.46
2018-05-11T16:26:36.850Z,99135.02
2018-05-11T16:29:05.729Z,99126.90
2018-05-11T16:31:35.017Z,99139.14
2018-05-11T16:34:03.423Z,99138.28
2018-05-11T16:36:31.829Z,99147.52
2018-05-11T16:39:00.207Z,99146.84
2018-05-11T16:41:28.590Z,99145.79
2018-05-11T16:43:57.046Z,99149.41
2018-05-11T16:46:26.237Z,99146.87
2018-05-11T16:48:54.601Z,99149.86
2018-05-11T16:51:22.750Z,99152.10
2018-05-11T16:53:51.650Z,99153.89
2018-05-11T16:56:20.185Z,99150.09
2018-05-11T16:58:48.565Z,99146.17
2018-05-11T17:01:16.978Z,99151.59
2018-05-11T17:03:45.352Z,99150.19
2018-05-11T17:06:13.765Z,99148.80
2018-05-11T17:08:42.158Z,99141.54
2018-05-11T17:11:10.533Z,99145.92
2018-05-11T17:13:38.939Z,99143.87
2018-05-11T17:16:07.316Z,99153.80
2018-05-11T17:18:35.700Z,99148.13
2018-05-11T17:21:04.091Z,99151.30
2018-05-11T17:23:32.469Z,99147.61
2018-05-11T17:26:00.842Z,99146.41
2018-05-11T17:28:29.852Z,99153.17
2018-05-11T17:30:58.237Z,99152.21
2018-05-11T17:33:27.640Z,99146.20
2018-05-11T17:35:57.116Z,99148.84
2018-05-11T17:38:25.507Z,99142.88
2018-05-11T17:40:53.889Z,99134.63
2018-05-11T17:43:22.901Z,99142.98
2018-05-11T17:45:53.506Z,99144.12
2018-05-11T17:48:21.894Z,99141.05
2018-05-11T17:50:50.285Z,99140.87
2018-05-11T17:53:18.841Z,99141.05
2018-05-11T17:55:47.260Z,99139.56
2018-05-11T17:58:15.676Z,99140.27
2018-05-11T18:00:44.085Z,99141.00
2018-05-11T18:03:12.552Z,99139.65
2018-05-11T18:05:41.264Z,99118.72
2018-05-11T18:08:09.665Z,99131.45
2018-05-11T18:10:38.083Z,99129.72
2018-05-11T18:13:06.792Z,99128.70
2018-05-11T18:15:35.192Z,99129.70
2018-05-11T18:18:03.574Z,99132.09
2018-05-11T18:20:31.975Z,99136.70
2018-05-11T18:23:00.425Z,99132.67
2018-05-11T18:25:29.081Z,99128.36
2018-05-11T18:27:57.452Z,99132.48
2018-05-11T18:30:26.757Z,99124.73
2018-05-11T18:32:55.136Z,99124.63
2018-05-11T18:35:26.274Z,99133.97
2018-05-11T18:37:54.659Z,99133.20
2018-05-11T18:40:24.780Z,99142.58
2018-05-11T18:42:53.768Z,99143.38
2018-05-11T18:45:25.156Z,99144.57
2018-05-11T18:47:53.578Z,99154.34
2018-05-11T18:50:23.323Z,99083.81
2018-05-11T18:52:51.847Z,99156.48
2018-05-11T18:55:22.006Z,99153.23
2018-05-11T18:57:50.404Z,99156.05
2018-05-11T19:00:18.826Z,99156.16
2018-05-11T19:02:47.226Z,99164.69
2018-05-11T19:05:18.042Z,99159.67
2018-05-11T19:07:46.693Z,99161.58
2018-05-11T19:10:15.719Z,99115.55
2018-05-11T19:12:45.280Z,99166.19
2018-05-11T19:15:14.665Z,99166.69
2018-05-11T19:17:43.272Z,99156.55
2018-05-11T19:20:11.649Z,99169.41
2018-05-11T19:22:40.018Z,99151.92
2018-05-11T19:25:08.425Z,99167.88
2018-05-11T19:27:36.967Z,99171.67
2018-05-11T19:30:05.042Z,99177.72
2018-05-11T19:32:33.441Z,99181.09
2018-05-11T19:35:02.476Z,99179.53
2018-05-11T19:37:30.861Z,99179.34
2018-05-11T19:39:59.546Z,99185.61
2018-05-11T19:42:27.942Z,99180.60
2018-05-11T19:44:56.541Z,99176.28
2018-05-11T19:47:24.931Z,99170.76
2018-05-11T19:49:53.321Z,99181.60
2018-05-11T19:52:21.704Z,99180.82
2018-05-11T19:54:50.084Z,99177.44
2018-05-11T19:57:18.577Z,99183.45
2018-05-11T19:59:47.043Z,99180.75
2018-05-11T20:02:16.205Z,99185.30
2018-05-11T20:04:45.562Z,99179.47
2018-05-11T20:07:14.035Z,99175.67
2018-05-11T20:09:42.414Z,99176.63
2018-05-11T20:12:10.795Z,99182.79
2018-05-11T20:14:39.237Z,99176.58
2018-05-11T20:17:07.637Z,99177.14
2018-05-11T20:19:36.052Z,99173.96
2018-05-11T20:22:04.441Z,99157.39
2018-05-11T20:24:32.813Z,99185.77
2018-05-11T20:27:01.196Z,99186.34
2018-05-11T20:29:29.576Z,99187.84
2018-05-11T20:31:58.157Z,99192.16
2018-05-11T20:34:26.534Z,99188.30
2018-05-11T20:36:55.686Z,99198.09
2018-05-11T20:39:24.956Z,99198.64
2018-05-11T20:41:53.338Z,99200.05
2018-05-11T20:44:21.734Z,99185.33
2018-05-11T20:46:50.122Z,99206.88
2018-05-11T20:49:18.504Z,99212.03
2018-05-11T20:51:46.882Z,99085.38
2018-05-11T20:54:15.258Z,99212.35
2018-05-11T20:56:43.627Z,99209.63
2018-05-11T20:59:12.040Z,99208.83
2018-05-11T21:01:40.286Z,99203.41
2018-05-11T21:04:08.674Z,99210.37
2018-05-11T21:06:37.055Z,99207.33
2018-05-11T21:09:04.910Z,99205.48
2018-05-11T21:11:33.278Z,99196.95
2018-05-11T21:14:01.655Z,99200.84
2018-05-11T21:16:30.060Z,99204.59
2018-05-11T21:18:58.443Z,99205.91
2018-05-11T21:21:27.587Z,99206.30
2018-05-11T21:23:55.969Z,99211.55
2018-05-11T21:26:24.352Z,99211.67
2018-05-11T21:28:52.764Z,99207.70
2018-05-11T21:31:21.165Z,99206.97
2018-05-11T21:33:49.567Z,99201.02
2018-05-11T21:36:17.974Z,99202.52
2018-05-11T21:38:46.140Z,99204.83
2018-05-11T21:41:14.564Z,99205.47
2018-05-11T21:43:43.114Z,99205.32
2018-05-11T21:46:11.497Z,99206.80
2018-05-11T21:48:39.906Z,99207.45
2018-05-11T21:51:08.288Z,99205.55
2018-05-11T21:53:36.667Z,99210.31
2018-05-11T21:56:05.051Z,99209.81
2018-05-11T21:58:33.432Z,99210.68
2018-05-11T22:01:02.066Z,99197.41
2018-05-11T22:03:30.798Z,99201.05
2018-05-11T22:05:59.207Z,99204.28
2018-05-11T22:08:27.743Z,99192.83
2018-05-11T22:10:56.117Z,99199.77
2018-05-11T22:13:24.499Z,99194.64
2018-05-11T22:15:52.899Z,99191.42
2018-05-11T22:18:21.775Z,99190.50
2018-05-11T22:20:50.173Z,99197.01
2018-05-11T22:23:18.542Z,99192.63
2018-05-11T22:25:46.921Z,99201.09
2018-05-11T22:28:15.300Z,99197.82
2018-05-11T22:30:43.699Z,99196.14
2018-05-11T22:33:12.083Z,99193.81
2018-05-11T22:35:40.483Z,99195.14
2018-05-11T22:38:08.882Z,99194.02
2018-05-11T22:40:37.263Z,99196.62
2018-05-11T22:43:05.792Z,99198.60
2018-05-11T22:45:34.194Z,99202.92
2018-05-11T22:48:02.604Z,99200.72
2018-05-11T22:50:30.981Z,99195.03
2018-05-11T22:52:59.378Z,99193.34
2018-05-11T22:55:29.502Z,99146.20
2018-05-11T22:57:57.879Z,99190.20
2018-05-11T23:00:28.309Z,99189.39
2018-05-11T23:02:56.710Z,99185.73
2018-05-11T23:05:25.090Z,99181.40
2018-05-11T23:07:53.478Z,99189.64
2018-05-11T23:10:21.865Z,99180.44
2018-05-11T23:12:50.244Z,99179.30
2018-05-11T23:15:19.905Z,99184.19
2018-05-11T23:17:48.332Z,99183.16
2018-05-11T23:20:18.630Z,99182.30
2018-05-11T23:22:47.590Z,99179.70
2018-05-11T23:25:19.652Z,99139.20
2018-05-11T23:27:48.055Z,99184.47
2018-05-11T23:30:20.401Z,99185.44
2018-05-11T23:32:49.112Z,99179.10
2018-05-11T23:35:21.150Z,99166.58
2018-05-11T23:37:49.565Z,99172.33
2018-05-11T23:40:17.609Z,99168.60
2018-05-11T23:42:46.006Z,99154.98
2018-05-11T23:45:18.399Z,99166.38
2018-05-11T23:47:47.452Z,99164.83
2018-05-11T23:50:18.865Z,99172.02
2018-05-11T23:52:47.224Z,99171.11
2018-05-11T23:55:15.925Z,99108.80
2018-05-11T23:57:45.857Z,99173.83
